N984TZ LFMN-LFTZ
Flight info
| Callsign | N984TZ |
|---|---|
| Flight time | 0h 20m |
| Altitude | 4000 |
| Route | XAMAL DCT RAPED DCT STP |
| Aircraft | S22T/L-SDGRY/S |
Departure
| Time | 2026-05-06 18:35 |
|---|---|
| Airport | Nice-Côte d'Azur Airport (LFMN) |
Arrival
| Time | 2026-05-06 18:55 |
|---|---|
| Airport | La Môle Airport (LFTZ) |
| Time | Latitude | Longitude | Altitude | Speed | Heading |
|---|---|---|---|---|---|
| 2026-05-06 18:10 | 43.67195 | 7.22800 | 14 ft | 0 kts | 312° |
| 2026-05-06 18:30 | 43.67196 | 7.22793 | 14 ft | 6 kts | 269° |
| 2026-05-06 18:30 | 43.67147 | 7.22764 | 14 ft | 11 kts | 202° |
| 2026-05-06 18:30 | 43.67082 | 7.22699 | 13 ft | 13 kts | 225° |
| 2026-05-06 18:31 | 43.67017 | 7.22611 | 13 ft | 13 kts | 224° |
| 2026-05-06 18:31 | 43.66949 | 7.22519 | 12 ft | 15 kts | 224° |
| 2026-05-06 18:31 | 43.66871 | 7.22417 | 10 ft | 16 kts | 222° |
| 2026-05-06 18:31 | 43.66840 | 7.22379 | 10 ft | 3 kts | 208° |
| 2026-05-06 18:32 | 43.66791 | 7.22423 | 10 ft | 12 kts | 135° |
| 2026-05-06 18:32 | 43.66725 | 7.22521 | 12 ft | 15 kts | 135° |
| 2026-05-06 18:32 | 43.66644 | 7.22629 | 14 ft | 12 kts | 130° |
| 2026-05-06 18:32 | 43.66637 | 7.22641 | 14 ft | 5 kts | 134° |
| 2026-05-06 18:33 | 43.66602 | 7.22689 | 15 ft | 0 kts | 134° |
| 2026-05-06 18:33 | 43.66547 | 7.22759 | 17 ft | 16 kts | 152° |
| 2026-05-06 18:34 | 43.66475 | 7.22721 | 17 ft | 0 kts | 225° |
| 2026-05-06 18:34 | 43.66273 | 7.22448 | 21 ft | 71 kts | 224° |
| 2026-05-06 18:34 | 43.65865 | 7.21915 | 164 ft | 90 kts | 219° |
| 2026-05-06 18:35 | 43.65365 | 7.21291 | 306 ft | 107 kts | 225° |
| 2026-05-06 18:35 | 43.64801 | 7.20478 | 450 ft | 124 kts | 225° |
| 2026-05-06 18:35 | 43.64195 | 7.19622 | 698 ft | 126 kts | 224° |
| 2026-05-06 18:35 | 43.63561 | 7.18781 | 963 ft | 127 kts | 225° |
| 2026-05-06 18:36 | 43.62919 | 7.17950 | 1220 ft | 127 kts | 224° |
| 2026-05-06 18:36 | 43.62263 | 7.17127 | 1464 ft | 128 kts | 224° |
| 2026-05-06 18:36 | 43.61599 | 7.16295 | 1720 ft | 130 kts | 225° |
| 2026-05-06 18:36 | 43.60865 | 7.15555 | 1964 ft | 136 kts | 205° |
| 2026-05-06 18:37 | 43.59947 | 7.15178 | 2207 ft | 137 kts | 204° |
| 2026-05-06 18:37 | 43.59043 | 7.14743 | 2485 ft | 137 kts | 204° |
| 2026-05-06 18:37 | 43.58154 | 7.14324 | 2851 ft | 129 kts | 205° |
| 2026-05-06 18:37 | 43.57341 | 7.13946 | 3320 ft | 118 kts | 204° |
| 2026-05-06 18:38 | 43.56597 | 7.13595 | 3784 ft | 108 kts | 205° |
| 2026-05-06 18:38 | 43.55901 | 7.13269 | 4250 ft | 103 kts | 206° |
| 2026-05-06 18:38 | 43.55256 | 7.12967 | 4724 ft | 97 kts | 205° |
| 2026-05-06 18:38 | 43.54595 | 7.12647 | 5028 ft | 114 kts | 205° |
| 2026-05-06 18:39 | 43.53753 | 7.12227 | 5050 ft | 142 kts | 205° |
| 2026-05-06 18:39 | 43.52761 | 7.11746 | 5048 ft | 158 kts | 204° |
| 2026-05-06 18:39 | 43.51689 | 7.11240 | 5047 ft | 168 kts | 202° |
| 2026-05-06 18:40 | 43.49453 | 7.10192 | 5041 ft | 174 kts | 204° |
| 2026-05-06 18:40 | 43.48323 | 7.09595 | 5035 ft | 174 kts | 212° |
| 2026-05-06 18:40 | 43.47407 | 7.08551 | 5031 ft | 169 kts | 232° |
| 2026-05-06 18:40 | 43.46727 | 7.07256 | 5032 ft | 169 kts | 238° |
| 2026-05-06 18:41 | 43.46039 | 7.05950 | 5035 ft | 169 kts | 237° |
| 2026-05-06 18:41 | 43.45347 | 7.04636 | 5033 ft | 170 kts | 237° |
| 2026-05-06 18:41 | 43.44659 | 7.03321 | 5038 ft | 170 kts | 237° |
| 2026-05-06 18:41 | 43.43965 | 7.01996 | 5035 ft | 171 kts | 237° |
| 2026-05-06 18:42 | 43.43272 | 7.00671 | 5039 ft | 171 kts | 237° |
| 2026-05-06 18:42 | 43.42578 | 6.99341 | 5038 ft | 171 kts | 237° |
| 2026-05-06 18:42 | 43.41881 | 6.98010 | 5037 ft | 172 kts | 237° |
| 2026-05-06 18:42 | 43.41178 | 6.96672 | 5036 ft | 173 kts | 237° |
| 2026-05-06 18:43 | 43.40471 | 6.95325 | 5037 ft | 173 kts | 237° |
| 2026-05-06 18:43 | 43.39776 | 6.93996 | 5037 ft | 174 kts | 238° |
| 2026-05-06 18:43 | 43.39070 | 6.92645 | 5037 ft | 174 kts | 237° |
| 2026-05-06 18:43 | 43.38363 | 6.91300 | 5038 ft | 174 kts | 237° |
| 2026-05-06 18:44 | 43.37657 | 6.89956 | 5042 ft | 174 kts | 237° |
| 2026-05-06 18:44 | 43.36949 | 6.88610 | 5043 ft | 174 kts | 236° |
| 2026-05-06 18:44 | 43.36241 | 6.87267 | 5042 ft | 173 kts | 237° |
| 2026-05-06 18:44 | 43.35540 | 6.85929 | 5043 ft | 173 kts | 237° |
| 2026-05-06 18:45 | 43.34837 | 6.84593 | 5040 ft | 172 kts | 237° |
| 2026-05-06 18:45 | 43.34135 | 6.83258 | 5048 ft | 173 kts | 237° |
| 2026-05-06 18:45 | 43.33442 | 6.81942 | 5045 ft | 172 kts | 237° |
| 2026-05-06 18:45 | 43.32828 | 6.80536 | 5042 ft | 171 kts | 248° |
| 2026-05-06 18:46 | 43.32335 | 6.79063 | 5048 ft | 171 kts | 246° |
| 2026-05-06 18:46 | 43.31796 | 6.77596 | 5051 ft | 171 kts | 246° |
| 2026-05-06 18:46 | 43.31238 | 6.76119 | 4887 ft | 179 kts | 245° |
| 2026-05-06 18:46 | 43.30652 | 6.74564 | 4664 ft | 186 kts | 245° |
| 2026-05-06 18:47 | 43.30066 | 6.73009 | 4407 ft | 172 kts | 247° |
| 2026-05-06 18:47 | 43.29556 | 6.71638 | 4141 ft | 152 kts | 246° |
| 2026-05-06 18:47 | 43.29086 | 6.70408 | 3867 ft | 141 kts | 246° |
| 2026-05-06 18:47 | 43.28641 | 6.69247 | 3595 ft | 134 kts | 249° |
| 2026-05-06 18:48 | 43.28246 | 6.68227 | 3561 ft | 112 kts | 249° |
| 2026-05-06 18:48 | 43.27912 | 6.67358 | 3555 ft | 94 kts | 250° |
| 2026-05-06 18:48 | 43.27629 | 6.66619 | 3549 ft | 81 kts | 251° |
| 2026-05-06 18:48 | 43.27376 | 6.65939 | 3405 ft | 83 kts | 252° |
| 2026-05-06 18:49 | 43.27063 | 6.65096 | 2888 ft | 115 kts | 250° |
| 2026-05-06 18:49 | 43.26672 | 6.64073 | 2512 ft | 117 kts | 247° |
| 2026-05-06 18:49 | 43.26338 | 6.63216 | 2468 ft | 86 kts | 249° |
| 2026-05-06 18:49 | 43.26084 | 6.62564 | 2455 ft | 73 kts | 251° |
| 2026-05-06 18:50 | 43.25849 | 6.61949 | 2475 ft | 79 kts | 250° |
| 2026-05-06 18:50 | 43.25565 | 6.61198 | 2491 ft | 98 kts | 249° |
| 2026-05-06 18:50 | 43.25185 | 6.60332 | 2497 ft | 117 kts | 229° |
| 2026-05-06 18:50 | 43.24339 | 6.60095 | 2496 ft | 143 kts | 171° |
| 2026-05-06 18:51 | 43.23592 | 6.61019 | 2494 ft | 156 kts | 115° |
| 2026-05-06 18:51 | 43.23622 | 6.62478 | 2487 ft | 157 kts | 60° |
| 2026-05-06 18:51 | 43.24398 | 6.63364 | 2489 ft | 142 kts | 5° |
| 2026-05-06 18:51 | 43.25262 | 6.63073 | 2485 ft | 125 kts | 312° |
| 2026-05-06 18:52 | 43.25548 | 6.62002 | 2488 ft | 123 kts | 278° |
| 2026-05-06 18:52 | 43.25449 | 6.60835 | 2489 ft | 130 kts | 249° |
| 2026-05-06 18:52 | 43.24999 | 6.59745 | 2545 ft | 128 kts | 244° |
| 2026-05-06 18:52 | 43.24632 | 6.58626 | 2426 ft | 131 kts | 255° |
| 2026-05-06 18:53 | 43.24465 | 6.57392 | 2357 ft | 126 kts | 259° |
| 2026-05-06 18:53 | 43.24175 | 6.56295 | 2077 ft | 125 kts | 240° |
| 2026-05-06 18:53 | 43.23712 | 6.55296 | 1774 ft | 126 kts | 236° |
| 2026-05-06 18:53 | 43.23205 | 6.54353 | 1565 ft | 120 kts | 234° |
| 2026-05-06 18:54 | 43.22731 | 6.53430 | 1370 ft | 117 kts | 235° |
| 2026-05-06 18:54 | 43.22270 | 6.52497 | 1104 ft | 121 kts | 238° |
| 2026-05-06 18:54 | 43.21830 | 6.51499 | 809 ft | 116 kts | 241° |
| 2026-05-06 18:54 | 43.21480 | 6.50605 | 608 ft | 100 kts | 243° |
| 2026-05-06 18:55 | 43.21163 | 6.49773 | 361 ft | 98 kts | 243° |
| 2026-05-06 18:55 | 43.20841 | 6.48953 | 114 ft | 96 kts | 242° |
| 2026-05-06 18:55 | 43.20573 | 6.48268 | 70 ft | 67 kts | 240° |
| 2026-05-06 18:55 | 43.20399 | 6.47820 | 68 ft | 37 kts | 242° |
| 2026-05-06 18:56 | 43.20302 | 6.47568 | 60 ft | 18 kts | 242° |
| 2026-05-06 18:56 | 43.20360 | 6.47538 | 64 ft | 10 kts | 29° |
| 2026-05-06 18:56 | 43.20388 | 6.47549 | 64 ft | 0 kts | 328° |